Time;durP1;ratioP1;P1;durP2;ratioP2;P2;SDS_P1;SDS_P2;PMS_P1;PMS_P2;Temp;Humidity;BMP_temperature;BMP_pressure;BME280_temperature;BME280_humidity;BME280_pressure;Samples;Min_cycle;Max_cycle;Signal;HPM_P1;HPM_P2
2023/11/28 00:00:38;;;;;;;9.70;8.60;;;;;;;3.43;55.80;101074.42;107198;1268;25379;-74
2023/11/28 00:03:05;;;;;;;12.40;10.40;;;;;;;3.49;55.93;101073.80;106898;1261;24333;-74
2023/11/28 00:05:32;;;;;;;13.10;10.20;;;;;;;3.52;55.84;101071.08;107118;1254;25478;-74
2023/11/28 00:08:00;;;;;;;12.00;9.40;;;;;;;3.53;55.52;101068.18;106929;1261;25356;-74
2023/11/28 00:10:27;;;;;;;11.40;8.90;;;;;;;3.44;55.68;101069.96;107104;1271;23304;-74
2023/11/28 00:12:54;;;;;;;11.90;9.70;;;;;;;3.35;55.50;101075.85;107178;1252;25290;-75
2023/11/28 00:15:21;;;;;;;11.20;8.60;;;;;;;3.32;55.37;101085.92;107217;1254;25570;-74
2023/11/28 00:17:49;;;;;;;11.80;8.90;;;;;;;3.51;54.84;101089.59;106275;1257;1003750;-74
2023/11/28 00:20:16;;;;;;;12.40;9.30;;;;;;;3.89;53.60;101090.05;107115;1253;25491;-74
2023/11/28 00:22:43;;;;;;;16.50;12.10;;;;;;;3.95;53.28;101084.78;107114;1257;25366;-74
2023/11/28 00:25:10;;;;;;;16.10;10.60;;;;;;;3.92;53.34;101086.64;106348;1266;1003118;-74
2023/11/28 00:27:38;;;;;;;12.30;10.30;;;;;;;3.89;53.54;101091.94;107069;1257;25380;-74
2023/11/28 00:30:05;;;;;;;11.80;8.90;;;;;;;3.89;53.53;101094.84;107089;1259;25418;-74
2023/11/28 00:32:32;;;;;;;10.80;8.50;;;;;;;3.91;53.62;101098.82;107194;1255;23851;-74
2023/11/28 00:35:00;;;;;;;10.70;9.50;;;;;;;3.99;53.35;101091.34;106376;1266;1003942;-74
2023/11/28 00:37:27;;;;;;;12.10;9.70;;;;;;;4.05;53.14;101086.94;106979;1259;25356;-73
2023/11/28 00:39:54;;;;;;;13.30;10.00;;;;;;;4.08;53.14;101086.13;106632;1274;25535;-73
2023/11/28 00:42:22;;;;;;;11.70;9.50;;;;;;;4.09;53.36;101080.28;106062;1259;1003681;-74
2023/11/28 00:44:49;;;;;;;11.80;9.60;;;;;;;4.11;53.52;101075.86;106871;1257;25363;-74
2023/11/28 00:47:15;;;;;;;12.60;9.60;;;;;;;4.15;53.45;101073.66;107185;1256;25028;-74
2023/11/28 00:49:43;;;;;;;10.80;9.20;;;;;;;4.18;53.56;101068.02;107183;1254;24310;-74
2023/11/28 00:52:11;;;;;;;12.50;9.80;;;;;;;4.20;53.64;101069.06;106458;1267;1002885;-74
2023/11/28 00:54:38;;;;;;;11.90;9.60;;;;;;;4.24;53.80;101070.12;106123;1257;1003749;-75
2023/11/28 00:57:07;;;;;;;12.80;10.20;;;;;;;4.27;53.64;101068.77;106964;1263;25397;-75
2023/11/28 00:59:35;;;;;;;12.00;9.20;;;;;;;4.31;53.55;101074.81;106732;1257;25353;-75
2023/11/28 01:02:05;;;;;;;11.40;9.30;;;;;;;4.32;53.98;101074.84;106772;1256;24420;-74
2023/11/28 01:04:35;;;;;;;11.10;9.20;;;;;;;4.36;54.00;101078.31;106949;1257;25019;-74
2023/11/28 01:07:02;;;;;;;11.80;9.70;;;;;;;4.38;54.04;101076.60;106460;1255;1002932;-74
2023/11/28 01:09:29;;;;;;;10.30;9.20;;;;;;;4.42;54.00;101078.17;107105;1257;25458;-75
2023/11/28 01:11:56;;;;;;;11.40;10.20;;;;;;;4.37;54.32;101080.88;106716;1268;25455;-74
2023/11/28 01:14:23;;;;;;;10.30;9.30;;;;;;;3.90;55.62;101088.66;106627;1262;22542;-74
2023/11/28 01:16:50;;;;;;;9.70;8.30;;;;;;;3.83;56.00;101090.66;106180;1259;1003257;-74
2023/11/28 01:19:17;;;;;;;11.40;8.90;;;;;;;3.91;55.56;101088.34;106639;1270;22536;-74
2023/11/28 01:21:44;;;;;;;10.40;8.90;;;;;;;3.92;55.88;101085.63;105734;1277;1003064;-74
2023/11/28 01:24:11;;;;;;;10.70;8.70;;;;;;;3.93;55.86;101089.23;106747;1256;25341;-74
2023/11/28 01:26:38;;;;;;;11.70;9.00;;;;;;;3.95;55.80;101090.45;106717;1261;25425;-74
2023/11/28 01:29:06;;;;;;;9.00;8.10;;;;;;;3.96;55.95;101093.02;106111;1265;1003783;-74
2023/11/28 01:31:33;;;;;;;9.50;8.50;;;;;;;3.97;55.94;101087.89;106656;1269;25367;-74
2023/11/28 01:34:00;;;;;;;10.20;8.50;;;;;;;3.98;56.06;101086.87;106748;1258;25265;-75
2023/11/28 01:36:27;;;;;;;9.20;8.20;;;;;;;3.98;56.38;101081.73;106773;1260;25377;-74
2023/11/28 01:38:54;;;;;;;9.70;8.60;;;;;;;3.98;56.39;101085.34;106759;1267;24231;-75
2023/11/28 01:41:21;;;;;;;11.50;9.40;;;;;;;4.08;56.08;101087.14;106738;1261;25376;-74
2023/11/28 01:43:48;;;;;;;10.00;8.50;;;;;;;4.56;54.98;101081.38;106660;1263;25379;-74
2023/11/28 01:46:15;;;;;;;10.60;8.60;;;;;;;4.74;54.27;101081.52;107046;1257;24242;-74
2023/11/28 01:48:42;;;;;;;10.00;8.60;;;;;;;4.76;54.31;101078.27;106808;1257;25345;-75
2023/11/28 01:51:09;;;;;;;9.70;8.30;;;;;;;4.78;54.14;101079.33;106185;1260;1003331;-75
2023/11/28 01:53:37;;;;;;;9.80;8.10;;;;;;;4.81;54.19;101077.62;106854;1274;25338;-74
2023/11/28 01:56:04;;;;;;;10.40;8.20;;;;;;;4.83;54.11;101078.31;106962;1257;25491;-75
2023/11/28 01:58:31;;;;;;;9.20;8.30;;;;;;;4.84;54.02;101079.54;106967;1265;22653;-74
2023/11/28 02:00:59;;;;;;;11.10;8.20;;;;;;;4.82;53.76;101078.31;106137;1268;1003128;-74
2023/11/28 02:03:27;;;;;;;10.50;8.80;;;;;;;4.81;53.70;101075.39;106848;1266;25376;-75
2023/11/28 02:05:54;;;;;;;9.90;8.80;;;;;;;4.81;53.76;101071.27;107200;1256;25349;-75
2023/11/28 02:08:21;;;;;;;12.20;8.70;;;;;;;4.81;53.68;101071.60;106230;1258;1003814;-74
2023/11/28 02:10:49;;;;;;;12.80;9.30;;;;;;;4.81;53.79;101066.63;106922;1257;25477;-75
2023/11/28 02:13:16;;;;;;;11.30;9.50;;;;;;;4.79;53.67;101065.74;106965;1263;25409;-74
2023/11/28 02:15:44;;;;;;;10.40;8.90;;;;;;;4.75;53.40;101063.48;106896;1273;25485;-75
2023/11/28 02:18:13;;;;;;;12.90;10.10;;;;;;;4.72;53.28;101062.97;107023;1258;24490;-75
2023/11/28 02:20:40;;;;;;;13.20;9.70;;;;;;;4.70;53.36;101062.93;106784;1257;25373;-75
2023/11/28 02:23:07;;;;;;;13.80;9.80;;;;;;;4.67;53.15;101065.15;106165;1259;1003628;-74
2023/11/28 02:25:41;;;;;;;13.30;9.40;;;;;;;4.63;53.16;101065.45;106692;1262;22752;-75
2023/11/28 02:28:08;;;;;;;12.00;9.20;;;;;;;4.40;53.93;101064.59;106940;1254;22529;-74
2023/11/28 02:30:35;;;;;;;11.20;8.80;;;;;;;4.35;54.33;101071.25;106764;1259;25461;-74
2023/11/28 02:33:02;;;;;;;10.90;9.00;;;;;;;4.40;54.26;101072.15;106092;1256;1003765;-75
2023/11/28 02:35:29;;;;;;;10.60;8.60;;;;;;;4.45;54.11;101073.55;106874;1260;25337;-74
2023/11/28 02:37:56;;;;;;;10.80;9.40;;;;;;;4.65;53.44;101067.88;106576;1267;25530;-74
2023/11/28 02:40:23;;;;;;;13.10;9.30;;;;;;;4.97;52.55;101068.44;105733;1265;1002965;-75
2023/11/28 02:42:51;;;;;;;10.20;8.10;;;;;;;4.98;52.39;101068.95;106379;1265;25344;-74
2023/11/28 02:45:17;;;;;;;8.90;8.00;;;;;;;4.85;52.22;101066.48;106342;1274;25483;-74
2023/11/28 02:47:45;;;;;;;10.80;8.10;;;;;;;4.80;52.18;101063.02;105747;1262;1003246;-75
2023/11/28 02:50:12;;;;;;;9.60;8.00;;;;;;;4.77;51.83;101069.17;106344;1262;25428;-74
2023/11/28 02:52:40;;;;;;;8.60;7.70;;;;;;;4.74;51.84;101064.86;105768;1268;1003696;-74
2023/11/28 02:55:07;;;;;;;9.00;7.50;;;;;;;4.70;51.74;101052.80;106391;1264;25531;-74
2023/11/28 02:57:34;;;;;;;12.80;8.50;;;;;;;4.65;51.88;101056.71;106344;1265;25498;-74
2023/11/28 03:00:04;;;;;;;9.80;8.50;;;;;;;4.59;51.91;101055.81;106091;1270;25428;-75
2023/11/28 03:02:34;;;;;;;9.60;8.60;;;;;;;4.57;51.83;101055.28;105689;1262;1003844;-75
2023/11/28 03:05:02;;;;;;;8.90;8.00;;;;;;;4.55;51.84;101051.48;106015;1259;1003858;-75
2023/11/28 03:07:29;;;;;;;9.70;7.30;;;;;;;4.54;51.60;101049.93;106560;1263;24335;-75
2023/11/28 03:09:56;;;;;;;9.90;8.30;;;;;;;4.51;51.76;101045.45;106491;1265;23862;-75
2023/11/28 03:12:23;;;;;;;10.30;8.80;;;;;;;4.25;52.58;101040.09;106609;1258;24400;-75
2023/11/28 03:14:50;;;;;;;10.30;8.20;;;;;;;4.15;53.03;101038.63;105922;1261;1003772;-76
2023/11/28 03:17:17;;;;;;;8.40;7.50;;;;;;;4.13;53.35;101034.49;105994;1260;1002880;-76
2023/11/28 03:19:44;;;;;;;9.40;7.80;;;;;;;4.11;53.55;101033.61;106826;1262;22535;-76
2023/11/28 03:22:11;;;;;;;8.90;7.80;;;;;;;4.12;53.78;101032.95;106146;1260;1002995;-75
2023/11/28 03:24:40;;;;;;;9.10;7.80;;;;;;;4.15;54.08;101030.21;106787;1265;25348;-75
2023/11/28 03:27:07;;;;;;;8.40;7.50;;;;;;;4.21;54.13;101020.99;106909;1256;22542;-76
2023/11/28 03:29:35;;;;;;;10.60;7.90;;;;;;;4.34;54.06;101020.23;106211;1260;1003682;-76
2023/11/28 03:32:03;;;;;;;9.00;7.30;;;;;;;4.55;53.20;101019.02;106263;1257;1003282;-75
2023/11/28 03:34:31;;;;;;;9.10;7.50;;;;;;;4.66;52.69;101016.68;106978;1257;25236;-75
2023/11/28 03:36:58;;;;;;;9.20;7.90;;;;;;;4.93;52.17;101017.35;106928;1255;25345;-75
2023/11/28 03:39:25;;;;;;;8.70;7.70;;;;;;;5.00;51.90;101022.04;107095;1257;25240;-76
2023/11/28 03:41:51;;;;;;;8.40;7.50;;;;;;;5.02;51.90;101021.18;106919;1258;22528;-76
2023/11/28 03:44:19;;;;;;;10.00;7.90;;;;;;;5.05;51.82;101024.13;107158;1255;23910;-75
2023/11/28 03:46:46;;;;;;;8.60;7.70;;;;;;;5.06;51.94;101028.09;107232;1257;25492;-75
2023/11/28 03:49:13;;;;;;;8.90;8.00;;;;;;;5.14;51.89;101031.55;107068;1253;23868;-76
2023/11/28 03:51:40;;;;;;;9.90;7.50;;;;;;;5.18;51.77;101030.73;106932;1257;25491;-76
2023/11/28 03:54:07;;;;;;;11.50;7.70;;;;;;;5.21;51.84;101029.52;106943;1255;25374;-76
2023/11/28 03:56:34;;;;;;;10.10;7.60;;;;;;;5.24;51.91;101029.73;107239;1256;25350;-75
2023/11/28 03:59:02;;;;;;;10.70;7.30;;;;;;;5.27;52.02;101034.02;106895;1255;25343;-76
2023/11/28 04:01:29;;;;;;;10.10;7.30;;;;;;;5.30;52.00;101030.08;106802;1269;25637;-75
2023/11/28 04:03:56;;;;;;;10.30;7.80;;;;;;;5.33;52.28;101032.84;106201;1258;1003790;-76
2023/11/28 04:06:23;;;;;;;11.30;7.40;;;;;;;5.38;52.44;101029.95;106080;1259;1002948;-76
2023/11/28 04:08:52;;;;;;;10.80;7.10;;;;;;;5.44;52.55;101031.35;106741;1269;25537;-76
2023/11/28 04:11:19;;;;;;;8.30;7.10;;;;;;;5.50;52.63;101038.24;106859;1262;22557;-76
2023/11/28 04:13:47;;;;;;;9.90;6.40;;;;;;;5.55;52.81;101034.30;106775;1258;25377;-76
2023/11/28 04:16:17;;;;;;;9.50;7.50;;;;;;;5.61;52.93;101032.77;106870;1260;25342;-76
2023/11/28 04:18:50;;;;;;;9.40;7.50;;;;;;;5.68;52.93;101030.02;106794;1257;25335;-76
2023/11/28 04:21:21;;;;;;;10.20;8.30;;;;;;;5.72;52.91;101028.99;105724;1263;1002862;-76
2023/11/28 04:23:48;;;;;;;13.40;9.30;;;;;;;5.76;52.75;101032.80;106507;1263;25355;-76
2023/11/28 04:26:16;;;;;;;14.40;9.90;;;;;;;5.78;52.89;101035.05;106473;1264;25426;-76
2023/11/28 04:28:43;;;;;;;15.30;10.90;;;;;;;5.82;52.86;101040.40;105991;1258;1003522;-75
2023/11/28 04:31:17;;;;;;;18.20;12.20;;;;;;;5.83;52.85;101040.92;106330;1264;25369;-77
2023/11/28 04:33:46;;;;;;;11.80;9.20;;;;;;;5.85;52.84;101039.23;105703;1262;1002905;-76
2023/11/28 04:36:14;;;;;;;10.90;8.90;;;;;;;5.87;52.88;101035.63;106879;1268;22595;-77
2023/11/28 04:38:44;;;;;;;15.10;10.90;;;;;;;5.91;52.65;101035.11;106726;1258;22536;-76
2023/11/28 04:41:13;;;;;;;20.90;14.40;;;;;;;6.12;52.19;101028.59;106787;1258;24391;-76
2023/11/28 04:43:41;;;;;;;15.10;11.50;;;;;;;6.17;51.91;101022.73;106622;1270;25351;-76
2023/11/28 04:46:08;;;;;;;13.10;9.30;;;;;;;6.19;52.00;101019.29;106662;1261;25348;-76
2023/11/28 04:48:36;;;;;;;9.60;7.10;;;;;;;6.21;52.19;101010.34;106840;1258;25342;-75
2023/11/28 04:51:03;;;;;;;11.90;7.50;;;;;;;6.24;52.05;101012.92;106749;1258;24365;-76
2023/11/28 04:53:30;;;;;;;7.70;6.60;;;;;;;6.28;51.97;101013.27;106966;1258;24213;-75
2023/11/28 04:55:57;;;;;;;9.90;6.70;;;;;;;6.31;51.95;101008.77;106816;1256;24303;-75
2023/11/28 04:58:24;;;;;;;9.10;6.40;;;;;;;6.34;51.89;101012.05;105784;1264;1003311;-76
2023/11/28 05:00:52;;;;;;;6.20;5.60;;;;;;;6.37;51.80;101003.95;106043;1257;1002885;-76
2023/11/28 05:03:19;;;;;;;7.70;5.80;;;;;;;6.39;51.64;101005.16;106567;1275;25345;-76
2023/11/28 05:05:47;;;;;;;7.80;5.70;;;;;;;6.40;51.64;101002.74;106891;1258;24504;-75
2023/11/28 05:08:14;;;;;;;6.40;5.50;;;;;;;6.41;51.63;101000.33;107087;1258;24354;-75
2023/11/28 05:10:41;;;;;;;5.80;5.20;;;;;;;6.42;51.56;101003.43;106815;1260;25403;-75
2023/11/28 05:13:09;;;;;;;6.10;5.50;;;;;;;6.44;51.41;101001.88;105844;1267;1003521;-75
2023/11/28 05:15:36;;;;;;;6.90;6.20;;;;;;;6.47;51.40;100999.81;106868;1258;24406;-75
2023/11/28 05:18:04;;;;;;;8.90;6.70;;;;;;;6.49;51.25;100991.36;106845;1261;25422;-75
2023/11/28 05:20:32;;;;;;;10.60;6.80;;;;;;;6.51;51.20;100991.19;106963;1256;25329;-75
2023/11/28 05:22:59;;;;;;;8.90;6.50;;;;;;;6.52;51.07;100990.67;106819;1256;22527;-75
2023/11/28 05:25:27;;;;;;;8.80;6.50;;;;;;;6.53;50.87;100989.29;106921;1258;23868;-75
2023/11/28 05:27:56;;;;;;;7.60;6.40;;;;;;;6.54;50.78;100987.22;106871;1258;24373;-75
2023/11/28 05:30:23;;;;;;;6.80;5.60;;;;;;;6.55;50.58;100988.60;106850;1271;25411;-76
2023/11/28 05:32:50;;;;;;;7.30;5.70;;;;;;;6.58;50.48;100989.10;106155;1258;1002951;-75
2023/11/28 05:35:17;;;;;;;7.80;6.30;;;;;;;6.61;50.48;100992.89;106995;1253;25440;-75
2023/11/28 05:37:44;;;;;;;7.30;5.80;;;;;;;6.63;50.44;100994.27;106038;1259;1002298;-75
2023/11/28 05:40:11;;;;;;;7.20;6.10;;;;;;;6.66;50.46;100990.48;106824;1261;25412;-76
2023/11/28 05:42:39;;;;;;;7.90;7.00;;;;;;;6.66;50.35;100986.86;106947;1258;24197;-75
2023/11/28 05:45:06;;;;;;;8.40;6.30;;;;;;;6.70;50.27;100989.78;106032;1260;1003787;-76
2023/11/28 05:47:34;;;;;;;7.90;6.60;;;;;;;6.71;50.33;100992.52;106640;1258;22794;-76
2023/11/28 05:50:01;;;;;;;8.20;6.10;;;;;;;6.74;50.28;100995.45;105969;1258;1005833;-76
2023/11/28 05:52:29;;;;;;;6.90;6.20;;;;;;;6.76;50.24;100994.06;106320;1258;1003684;-76
2023/11/28 05:54:56;;;;;;;8.40;6.60;;;;;;;6.78;50.42;100993.20;105919;1262;1003715;-76
2023/11/28 05:57:23;;;;;;;9.10;6.60;;;;;;;6.85;50.52;100996.11;106360;1277;25346;-76
2023/11/28 05:59:51;;;;;;;8.30;6.40;;;;;;;6.93;50.70;100997.46;106630;1263;22539;-76
2023/11/28 06:02:18;;;;;;;10.10;6.60;;;;;;;7.02;50.62;100988.98;106533;1264;22535;-76
2023/11/28 06:04:46;;;;;;;8.00;6.30;;;;;;;7.10;50.47;100990.34;106725;1261;25356;-76
2023/11/28 06:07:13;;;;;;;5.80;5.00;;;;;;;7.16;50.10;100991.70;106628;1264;23314;-76
2023/11/28 06:09:40;;;;;;;7.30;5.80;;;;;;;7.21;49.99;100986.50;106675;1268;25281;-76
2023/11/28 06:12:07;;;;;;;7.50;5.60;;;;;;;7.24;49.99;100989.94;106829;1260;25345;-77
2023/11/28 06:14:35;;;;;;;6.70;5.30;;;;;;;7.28;49.94;100986.80;106412;1272;25412;-76
2023/11/28 06:17:03;;;;;;;7.40;5.50;;;;;;;7.33;50.01;100985.39;107114;1268;25373;-76
2023/11/28 06:19:29;;;;;;;6.50;4.90;;;;;;;7.36;50.02;100981.93;106966;1256;22537;-77
2023/11/28 06:21:56;;;;;;;6.60;5.10;;;;;;;7.39;49.98;100980.54;107190;1263;25421;-76
2023/11/28 06:24:24;;;;;;;5.70;5.10;;;;;;;7.41;50.12;100978.45;107000;1257;24251;-77
2023/11/28 06:26:51;;;;;;;10.80;8.50;;;;;;;7.46;50.31;100976.52;106985;1256;22546;-77
2023/11/28 06:29:18;;;;;;;9.60;7.70;;;;;;;7.50;50.32;100977.20;107111;1253;25542;-77
2023/11/28 06:31:46;;;;;;;10.50;7.00;;;;;;;7.55;50.34;100974.40;106921;1256;25367;-77
2023/11/28 06:34:13;;;;;;;8.60;6.10;;;;;;;7.61;50.32;100968.66;106186;1259;1003620;-77
2023/11/28 06:36:40;;;;;;;7.30;5.40;;;;;;;7.66;50.37;100960.17;106908;1256;25453;-77
2023/11/28 06:39:07;;;;;;;9.50;7.60;;;;;;;7.72;50.20;100960.66;107025;1256;24341;-77
2023/11/28 06:41:34;;;;;;;38.60;21.50;;;;;;;7.77;50.29;100957.50;107079;1263;25397;-77
2023/11/28 06:44:01;;;;;;;25.70;14.40;;;;;;;7.81;50.30;100952.98;106813;1262;25376;-77
2023/11/28 06:46:31;;;;;;;21.80;13.00;;;;;;;7.87;50.36;100945.35;106373;1256;1002892;-77
2023/11/28 06:48:58;;;;;;;14.20;9.20;;;;;;;7.94;50.47;100945.81;107206;1256;25494;-77
2023/11/28 06:51:26;;;;;;;11.80;8.30;;;;;;;8.01;50.68;100950.25;106521;1255;1002975;-77
2023/11/28 06:53:54;;;;;;;9.10;6.70;;;;;;;8.07;50.92;100949.85;107137;1256;22539;-73
2023/11/28 06:56:21;;;;;;;11.00;7.70;;;;;;;8.14;50.92;100946.50;106986;1256;25334;-74
2023/11/28 06:58:48;;;;;;;9.80;7.60;;;;;;;8.21;50.96;100943.67;105802;1261;1003789;-73
2023/11/28 07:01:16;;;;;;;12.20;7.60;;;;;;;8.29;51.12;100935.67;106574;1256;25335;-71
2023/11/28 07:03:43;;;;;;;7.60;6.00;;;;;;;8.36;51.27;100928.88;106611;1258;24205;-72
2023/11/28 07:06:10;;;;;;;8.20;6.80;;;;;;;8.43;51.16;100927.95;106590;1260;24330;-70
2023/11/28 07:08:37;;;;;;;8.10;6.40;;;;;;;8.49;51.21;100923.90;106349;1261;25494;-70
2023/11/28 07:11:05;;;;;;;9.30;6.20;;;;;;;8.57;51.23;100925.89;107051;1258;25430;-71
2023/11/28 07:13:34;;;;;;;10.40;7.40;;;;;;;8.62;51.48;100920.48;106261;1256;1003014;-70
2023/11/28 07:16:02;;;;;;;9.50;6.30;;;;;;;8.68;51.45;100919.52;106726;1270;24279;-72
2023/11/28 07:18:29;;;;;;;9.10;6.60;;;;;;;8.73;51.40;100916.37;106081;1267;1002868;-70
2023/11/28 07:20:56;;;;;;;7.20;6.20;;;;;;;8.78;51.37;100909.73;106365;1255;1002888;-69
2023/11/28 07:23:23;;;;;;;6.70;6.00;;;;;;;8.80;51.12;100908.50;106911;1259;25334;-71
2023/11/28 07:25:50;;;;;;;8.30;6.20;;;;;;;8.84;51.04;100905.86;107002;1269;25401;-71
2023/11/28 07:28:18;;;;;;;12.40;5.70;;;;;;;8.95;50.92;100903.64;106750;1259;24220;-70
2023/11/28 07:30:45;;;;;;;10.40;5.40;;;;;;;9.06;51.04;100902.63;107224;1257;25367;-68
2023/11/28 07:33:13;;;;;;;10.20;4.90;;;;;;;9.17;51.18;100906.64;106295;1256;1003712;-69
2023/11/28 07:35:40;;;;;;;7.50;4.30;;;;;;;9.24;51.60;100900.31;106863;1261;25412;-68
2023/11/28 07:38:07;;;;;;;3.90;2.00;;;;;;;9.36;51.65;100898.91;106293;1259;1003700;-68
2023/11/28 07:40:34;;;;;;;6.00;2.00;;;;;;;9.47;51.54;100903.09;106538;1274;25359;-67
2023/11/28 07:43:03;;;;;;;3.00;1.40;;;;;;;9.56;51.76;100903.11;106907;1269;25367;-66
2023/11/28 07:45:32;;;;;;;7.80;2.10;;;;;;;9.72;51.84;100900.97;107110;1256;25816;-65
2023/11/28 07:47:59;;;;;;;4.80;2.50;;;;;;;9.85;51.90;100899.19;107103;1253;25517;-63
2023/11/28 07:50:27;;;;;;;4.70;1.20;;;;;;;9.99;52.06;100897.05;107093;1252;25325;-65
2023/11/28 07:52:54;;;;;;;3.40;1.30;;;;;;;10.11;51.83;100893.23;106663;1263;23223;-65
2023/11/28 07:55:21;;;;;;;2.10;1.40;;;;;;;10.24;51.99;100893.36;106767;1257;25363;-64
2023/11/28 07:57:48;;;;;;;4.20;1.70;;;;;;;10.35;52.13;100894.52;107142;1257;25373;-64
2023/11/28 08:00:16;;;;;;;2.80;2.00;;;;;;;10.45;51.74;100891.91;107137;1254;25370;-62
2023/11/28 08:02:43;;;;;;;5.00;2.50;;;;;;;10.48;51.66;100893.77;107230;1256;24670;-63
2023/11/28 08:05:10;;;;;;;13.50;6.00;;;;;;;10.65;51.55;100890.29;107116;1256;25360;-62
2023/11/28 08:07:43;;;;;;;9.10;3.40;;;;;;;10.77;51.44;100885.91;106703;1262;25425;-62
2023/11/28 08:10:11;;;;;;;8.00;3.00;;;;;;;10.82;51.38;100885.42;106940;1269;25334;-62
2023/11/28 08:12:38;;;;;;;4.00;2.30;;;;;;;10.91;51.23;100875.89;106678;1266;377585;-63
2023/11/28 08:15:07;;;;;;;3.40;1.70;;;;;;;11.05;50.88;100868.81;107082;1256;25393;-62
2023/11/28 08:17:34;;;;;;;6.80;2.30;;;;;;;11.15;50.47;100865.64;107109;1260;25288;-62
2023/11/28 08:20:02;;;;;;;5.40;1.90;;;;;;;11.14;50.62;100864.61;106861;1261;25386;-62
2023/11/28 08:22:30;;;;;;;4.90;1.90;;;;;;;11.20;50.72;100860.83;107118;1256;25373;-63
2023/11/28 08:25:00;;;;;;;3.80;1.40;;;;;;;11.29;50.59;100855.05;106969;1259;25494;-62
2023/11/28 08:27:27;;;;;;;3.20;1.40;;;;;;;11.39;50.53;100848.23;106309;1256;1002953;-62
2023/11/28 08:29:55;;;;;;;2.10;1.20;;;;;;;11.52;50.52;100845.33;106367;1253;1015751;-63
2023/11/28 08:32:22;;;;;;;4.70;1.40;;;;;;;11.71;50.19;100840.01;107048;1256;25443;-63
2023/11/28 08:34:49;;;;;;;1.30;0.80;;;;;;;11.91;49.41;100834.48;106338;1256;1002973;-64
2023/11/28 08:37:16;;;;;;;4.00;1.50;;;;;;;12.02;49.30;100827.39;107009;1256;25562;-63
2023/11/28 08:39:43;;;;;;;6.00;1.30;;;;;;;12.13;49.32;100821.19;107063;1256;24197;-63
2023/11/28 08:42:10;;;;;;;2.70;1.40;;;;;;;12.22;49.15;100819.36;107029;1256;22601;-62
2023/11/28 08:44:38;;;;;;;2.50;1.50;;;;;;;12.31;48.78;100815.99;107023;1256;25466;-64
2023/11/28 08:47:05;;;;;;;2.80;1.00;;;;;;;12.40;48.52;100811.71;106127;1256;1003239;-63
2023/11/28 08:49:32;;;;;;;6.20;1.60;;;;;;;12.64;48.23;100799.69;106836;1267;25359;-60
2023/11/28 08:52:00;;;;;;;4.00;1.10;;;;;;;12.76;48.05;100789.96;107060;1257;24355;-61
2023/11/28 08:54:30;;;;;;;4.00;1.20;;;;;;;12.83;47.50;100787.83;107101;1256;25017;-63
2023/11/28 08:56:57;;;;;;;5.90;1.30;;;;;;;12.87;47.21;100787.15;107095;1265;25364;-62
2023/11/28 08:59:24;;;;;;;4.30;1.20;;;;;;;12.94;47.67;100787.13;107055;1257;25399;-63
2023/11/28 09:01:51;;;;;;;3.70;1.20;;;;;;;12.99;47.77;100784.00;107087;1256;22588;-63
2023/11/28 09:04:19;;;;;;;1.70;1.00;;;;;;;13.06;47.74;100782.95;107056;1259;25466;-60
2023/11/28 09:06:46;;;;;;;3.70;1.00;;;;;;;13.13;47.41;100780.84;106793;1259;24226;-60
2023/11/28 09:09:13;;;;;;;6.40;1.60;;;;;;;13.20;47.16;100775.21;107094;1260;25364;-61
2023/11/28 09:11:40;;;;;;;4.00;1.10;;;;;;;13.26;47.46;100772.92;107109;1259;25348;-60
2023/11/28 09:14:08;;;;;;;4.00;1.10;;;;;;;13.34;47.40;100761.15;106770;1261;23916;-63
2023/11/28 09:16:38;;;;;;;5.60;1.50;;;;;;;13.42;47.22;100761.91;106852;1271;25331;-61
2023/11/28 09:19:05;;;;;;;4.40;1.60;;;;;;;13.51;47.37;100750.66;106862;1264;22705;-64
2023/11/28 09:21:32;;;;;;;2.30;1.10;;;;;;;13.59;47.21;100745.84;107071;1269;25491;-61
2023/11/28 09:23:59;;;;;;;4.60;1.30;;;;;;;13.66;47.11;100739.48;106854;1269;25424;-60
2023/11/28 09:26:26;;;;;;;5.10;1.30;;;;;;;13.74;46.90;100735.00;107135;1253;25463;-61
2023/11/28 09:28:54;;;;;;;5.90;1.50;;;;;;;13.79;46.80;100724.38;107190;1267;25378;-61
2023/11/28 09:31:26;;;;;;;4.90;1.40;;;;;;;13.85;46.92;100719.46;107068;1253;23889;-61
2023/11/28 09:33:53;;;;;;;3.00;1.20;;;;;;;13.90;46.46;100715.11;107107;1269;25495;-62
2023/11/28 09:36:20;;;;;;;2.70;1.10;;;;;;;13.94;46.15;100705.88;107060;1256;22948;-61
2023/11/28 09:38:48;;;;;;;7.50;1.50;;;;;;;14.00;46.09;100700.25;106858;1255;25353;-61
2023/11/28 09:41:19;;;;;;;5.80;1.60;;;;;;;14.06;46.33;100693.42;107052;1272;25373;-61
2023/11/28 09:43:48;;;;;;;5.00;1.70;;;;;;;14.12;46.82;100686.71;106970;1254;25527;-62
2023/11/28 09:46:15;;;;;;;7.80;1.50;;;;;;;14.18;47.13;100685.96;107075;1264;25362;-62
2023/11/28 09:48:42;;;;;;;8.20;1.70;;;;;;;14.10;47.45;100681.91;106854;1264;25486;-62
2023/11/28 09:51:09;;;;;;;6.20;1.70;;;;;;;14.26;46.98;100676.78;107101;1258;25327;-62
2023/11/28 09:53:37;;;;;;;4.50;2.20;;;;;;;14.32;46.92;100673.07;107036;1256;25411;-63
2023/11/28 09:56:05;;;;;;;8.00;1.90;;;;;;;14.37;47.10;100662.94;107026;1267;25349;-63
2023/11/28 09:58:32;;;;;;;13.10;2.20;;;;;;;14.38;47.33;100665.70;107080;1252;25477;-64
2023/11/28 10:01:02;;;;;;;9.70;2.90;;;;;;;14.35;47.94;100659.33;106942;1268;25363;-63
2023/11/28 10:03:29;;;;;;;9.30;2.50;;;;;;;14.39;48.32;100655.71;107119;1256;25334;-64
2023/11/28 10:05:57;;;;;;;6.10;1.70;;;;;;;14.42;47.95;100650.86;106772;1262;25325;-64
2023/11/28 10:08:26;;;;;;;8.20;2.00;;;;;;;14.46;47.60;100648.27;106954;1269;25432;-65
2023/11/28 10:10:53;;;;;;;4.80;1.70;;;;;;;14.48;47.41;100645.76;106830;1258;25376;-65
2023/11/28 10:13:21;;;;;;;15.10;3.10;;;;;;;14.50;47.75;100646.54;106888;1264;24213;-68
2023/11/28 10:15:54;;;;;;;13.30;2.00;;;;;;;14.54;47.94;100642.17;106334;1256;1003733;-66
2023/11/28 10:18:22;;;;;;;9.10;1.90;;;;;;;14.57;47.99;100638.20;106987;1269;25415;-66
2023/11/28 10:20:49;;;;;;;6.90;1.80;;;;;;;14.57;48.01;100635.77;107267;1271;25541;-67
2023/11/28 10:23:17;;;;;;;7.20;2.20;;;;;;;14.55;48.50;100637.59;107129;1274;23378;-66
2023/11/28 10:25:44;;;;;;;4.90;1.90;;;;;;;14.55;49.17;100630.64;106863;1274;25496;-64
2023/11/28 10:28:12;;;;;;;8.70;1.90;;;;;;;14.55;49.46;100627.66;107104;1266;25362;-68
2023/11/28 10:30:40;;;;;;;6.20;2.20;;;;;;;14.56;49.69;100624.63;106993;1271;22542;-67
2023/11/28 10:33:07;;;;;;;10.20;2.40;;;;;;;14.60;49.61;100627.80;106797;1272;25338;-68
2023/11/28 10:35:42;;;;;;;13.00;2.90;;;;;;;14.63;49.66;100618.59;106995;1256;24310;-68
2023/11/28 10:38:16;;;;;;;9.60;1.90;;;;;;;14.66;49.95;100610.63;106852;1269;24256;-67
2023/11/28 10:40:47;;;;;;;5.20;2.10;;;;;;;14.68;49.60;100611.58;106778;1259;25421;-68
2023/11/28 10:43:14;;;;;;;9.70;2.20;;;;;;;14.72;49.41;100607.94;107147;1272;22522;-68
2023/11/28 10:45:42;;;;;;;7.00;2.40;;;;;;;14.76;49.55;100606.23;106920;1267;25494;-68
2023/11/28 10:48:10;;;;;;;11.50;2.30;;;;;;;14.79;49.74;100603.14;106782;1271;25422;-68
2023/11/28 10:50:42;;;;;;;11.70;2.50;;;;;;;14.81;49.86;100594.48;107071;1255;25240;-67
2023/11/28 10:53:13;;;;;;;14.60;2.90;;;;;;;14.85;49.94;100588.55;107118;1260;24336;-68
2023/11/28 10:55:42;;;;;;;9.80;2.30;;;;;;;14.90;49.90;100580.14;106582;1274;22535;-67
2023/11/28 10:58:16;;;;;;;9.10;2.30;;;;;;;14.95;49.63;100581.65;106903;1257;25377;-69
2023/11/28 11:00:52;;;;;;;10.40;3.10;;;;;;;14.99;49.51;100578.85;106679;1262;22539;-68
2023/11/28 11:03:24;;;;;;;11.00;2.20;;;;;;;15.02;49.53;100578.54;106754;1274;22516;-68
2023/11/28 11:05:51;;;;;;;11.90;2.40;;;;;;;15.06;49.50;100582.40;106834;1256;25303;-67
2023/11/28 11:08:18;;;;;;;11.80;2.30;;;;;;;15.10;49.38;100582.05;107115;1256;23170;-68
2023/11/28 11:10:45;;;;;;;11.00;2.40;;;;;;;15.13;49.54;100581.05;107029;1261;25494;-66
2023/11/28 11:13:37;;;;;;;5.70;2.00;;;;;;;15.16;49.61;100575.49;107108;1259;24208;-68
2023/11/28 11:16:11;;;;;;;10.10;2.30;;;;;;;15.18;49.52;100571.04;106888;1257;22631;-67
2023/11/28 11:18:41;;;;;;;5.70;2.00;;;;;;;15.20;49.39;100566.21;106874;1255;22532;-67